sensor_id;sensor_type;location;lat;lon;timestamp;P1;durP1;ratioP1;P2;durP2;ratioP2
24713;SDS011;12820;51.580;5.010;2023-07-29T00:00:08;10.73;;;4.72;;
24713;SDS011;12820;51.580;5.010;2023-07-29T00:05:15;11.45;;;5.15;;
24713;SDS011;12820;51.580;5.010;2023-07-29T00:10:17;10.50;;;5.40;;
24713;SDS011;12820;51.580;5.010;2023-07-29T00:15:20;10.50;;;5.40;;
24713;SDS011;12820;51.580;5.010;2023-07-29T00:20:23;10.50;;;5.28;;
24713;SDS011;12820;51.580;5.010;2023-07-29T00:25:26;12.70;;;5.32;;
24713;SDS011;12820;51.580;5.010;2023-07-29T00:30:28;10.82;;;6.13;;
24713;SDS011;12820;51.580;5.010;2023-07-29T00:35:30;11.10;;;5.65;;
24713;SDS011;12820;51.580;5.010;2023-07-29T00:40:35;10.38;;;5.70;;
24713;SDS011;12820;51.580;5.010;2023-07-29T00:45:38;10.45;;;5.32;;
24713;SDS011;12820;51.580;5.010;2023-07-29T00:50:42;8.82;;;4.22;;
24713;SDS011;12820;51.580;5.010;2023-07-29T00:55:44;6.47;;;4.00;;
24713;SDS011;12820;51.580;5.010;2023-07-29T01:00:47;8.68;;;4.32;;
24713;SDS011;12820;51.580;5.010;2023-07-29T01:16:30;8.95;;;3.83;;
24713;SDS011;12820;51.580;5.010;2023-07-29T01:21:35;7.70;;;3.83;;
24713;SDS011;12820;51.580;5.010;2023-07-29T01:26:38;5.30;;;2.83;;
24713;SDS011;12820;51.580;5.010;2023-07-29T01:31:43;8.25;;;3.20;;
24713;SDS011;12820;51.580;5.010;2023-07-29T01:36:46;6.18;;;2.85;;
24713;SDS011;12820;51.580;5.010;2023-07-29T01:41:52;6.60;;;3.13;;
24713;SDS011;12820;51.580;5.010;2023-07-29T01:46:55;5.38;;;2.53;;
24713;SDS011;12820;51.580;5.010;2023-07-29T01:51:58;6.82;;;3.15;;
24713;SDS011;12820;51.580;5.010;2023-07-29T01:57:01;8.02;;;3.25;;
24713;SDS011;12820;51.580;5.010;2023-07-29T02:02:03;7.32;;;2.70;;
24713;SDS011;12820;51.580;5.010;2023-07-29T02:07:06;6.90;;;3.03;;
24713;SDS011;12820;51.580;5.010;2023-07-29T02:12:08;4.88;;;2.58;;
24713;SDS011;12820;51.580;5.010;2023-07-29T02:17:13;5.43;;;2.28;;
24713;SDS011;12820;51.580;5.010;2023-07-29T02:22:16;7.07;;;2.40;;
24713;SDS011;12820;51.580;5.010;2023-07-29T02:27:19;6.40;;;2.70;;
24713;SDS011;12820;51.580;5.010;2023-07-29T02:32:21;4.65;;;1.92;;
24713;SDS011;12820;51.580;5.010;2023-07-29T02:37:24;4.35;;;1.95;;
24713;SDS011;12820;51.580;5.010;2023-07-29T02:42:26;4.55;;;1.92;;
24713;SDS011;12820;51.580;5.010;2023-07-29T02:47:28;4.35;;;2.08;;
24713;SDS011;12820;51.580;5.010;2023-07-29T02:52:31;4.70;;;2.08;;
24713;SDS011;12820;51.580;5.010;2023-07-29T02:57:33;6.22;;;2.20;;
24713;SDS011;12820;51.580;5.010;2023-07-29T03:02:35;6.43;;;2.55;;
24713;SDS011;12820;51.580;5.010;2023-07-29T03:07:38;7.57;;;3.20;;
24713;SDS011;12820;51.580;5.010;2023-07-29T03:12:40;7.53;;;3.42;;
24713;SDS011;12820;51.580;5.010;2023-07-29T03:17:42;6.07;;;3.10;;
24713;SDS011;12820;51.580;5.010;2023-07-29T03:22:45;6.95;;;3.55;;
24713;SDS011;12820;51.580;5.010;2023-07-29T03:27:48;8.13;;;3.50;;
24713;SDS011;12820;51.580;5.010;2023-07-29T03:32:51;6.82;;;3.45;;
24713;SDS011;12820;51.580;5.010;2023-07-29T03:37:54;5.80;;;3.22;;
24713;SDS011;12820;51.580;5.010;2023-07-29T03:42:56;5.45;;;3.25;;
24713;SDS011;12820;51.580;5.010;2023-07-29T03:47:59;7.72;;;3.70;;
24713;SDS011;12820;51.580;5.010;2023-07-29T03:53:01;7.78;;;3.50;;
24713;SDS011;12820;51.580;5.010;2023-07-29T03:58:04;7.20;;;4.00;;
24713;SDS011;12820;51.580;5.010;2023-07-29T04:03:06;8.38;;;3.67;;
24713;SDS011;12820;51.580;5.010;2023-07-29T04:08:09;6.30;;;3.53;;
24713;SDS011;12820;51.580;5.010;2023-07-29T04:13:12;6.95;;;3.65;;
24713;SDS011;12820;51.580;5.010;2023-07-29T04:18:14;8.55;;;4.50;;
24713;SDS011;12820;51.580;5.010;2023-07-29T04:23:18;7.95;;;4.03;;
24713;SDS011;12820;51.580;5.010;2023-07-29T04:28:20;7.97;;;4.03;;
24713;SDS011;12820;51.580;5.010;2023-07-29T04:33:22;10.82;;;4.60;;
24713;SDS011;12820;51.580;5.010;2023-07-29T04:38:30;8.10;;;4.25;;
24713;SDS011;12820;51.580;5.010;2023-07-29T04:43:34;9.82;;;4.75;;
24713;SDS011;12820;51.580;5.010;2023-07-29T04:48:37;8.70;;;3.88;;
24713;SDS011;12820;51.580;5.010;2023-07-29T04:53:39;7.75;;;3.78;;
24713;SDS011;12820;51.580;5.010;2023-07-29T04:58:42;5.85;;;3.53;;
24713;SDS011;12820;51.580;5.010;2023-07-29T05:03:44;9.88;;;3.28;;
24713;SDS011;12820;51.580;5.010;2023-07-29T05:08:47;9.15;;;3.50;;
24713;SDS011;12820;51.580;5.010;2023-07-29T05:13:50;6.55;;;3.38;;
24713;SDS011;12820;51.580;5.010;2023-07-29T05:18:52;6.82;;;3.58;;
24713;SDS011;12820;51.580;5.010;2023-07-29T05:23:54;7.70;;;3.13;;
24713;SDS011;12820;51.580;5.010;2023-07-29T05:28:57;8.30;;;3.72;;
24713;SDS011;12820;51.580;5.010;2023-07-29T05:33:59;7.47;;;3.85;;
24713;SDS011;12820;51.580;5.010;2023-07-29T05:39:02;6.80;;;3.15;;
24713;SDS011;12820;51.580;5.010;2023-07-29T05:44:04;7.22;;;3.00;;
24713;SDS011;12820;51.580;5.010;2023-07-29T05:49:09;6.88;;;3.25;;
24713;SDS011;12820;51.580;5.010;2023-07-29T05:54:11;7.18;;;3.22;;
24713;SDS011;12820;51.580;5.010;2023-07-29T05:59:13;7.65;;;3.20;;
24713;SDS011;12820;51.580;5.010;2023-07-29T06:04:15;5.97;;;2.97;;
24713;SDS011;12820;51.580;5.010;2023-07-29T06:09:18;7.03;;;3.38;;
24713;SDS011;12820;51.580;5.010;2023-07-29T06:14:20;7.30;;;3.33;;
24713;SDS011;12820;51.580;5.010;2023-07-29T06:19:22;7.95;;;3.15;;
24713;SDS011;12820;51.580;5.010;2023-07-29T06:24:25;5.03;;;2.80;;
24713;SDS011;12820;51.580;5.010;2023-07-29T06:29:27;6.72;;;3.15;;
24713;SDS011;12820;51.580;5.010;2023-07-29T06:34:30;7.82;;;3.30;;
24713;SDS011;12820;51.580;5.010;2023-07-29T06:39:32;6.07;;;2.97;;
24713;SDS011;12820;51.580;5.010;2023-07-29T06:44:34;5.45;;;3.50;;
24713;SDS011;12820;51.580;5.010;2023-07-29T06:49:36;7.30;;;3.55;;
24713;SDS011;12820;51.580;5.010;2023-07-29T06:54:39;6.50;;;3.22;;
24713;SDS011;12820;51.580;5.010;2023-07-29T06:59:41;7.50;;;3.33;;
24713;SDS011;12820;51.580;5.010;2023-07-29T07:04:43;6.00;;;3.40;;
24713;SDS011;12820;51.580;5.010;2023-07-29T07:09:46;6.28;;;3.10;;
24713;SDS011;12820;51.580;5.010;2023-07-29T07:14:48;7.53;;;3.38;;
24713;SDS011;12820;51.580;5.010;2023-07-29T07:19:50;7.18;;;3.17;;
24713;SDS011;12820;51.580;5.010;2023-07-29T07:24:53;6.05;;;3.03;;
24713;SDS011;12820;51.580;5.010;2023-07-29T07:29:55;7.72;;;3.13;;
24713;SDS011;12820;51.580;5.010;2023-07-29T07:34:57;6.82;;;3.10;;
24713;SDS011;12820;51.580;5.010;2023-07-29T07:39:59;8.10;;;3.78;;
24713;SDS011;12820;51.580;5.010;2023-07-29T07:45:02;9.35;;;3.20;;
24713;SDS011;12820;51.580;5.010;2023-07-29T07:50:04;10.77;;;3.00;;
24713;SDS011;12820;51.580;5.010;2023-07-29T07:55:07;8.18;;;3.42;;
24713;SDS011;12820;51.580;5.010;2023-07-29T08:00:10;6.18;;;3.13;;
24713;SDS011;12820;51.580;5.010;2023-07-29T08:05:16;6.50;;;2.65;;
24713;SDS011;12820;51.580;5.010;2023-07-29T08:10:20;5.00;;;2.55;;
24713;SDS011;12820;51.580;5.010;2023-07-29T08:15:22;5.47;;;2.45;;
24713;SDS011;12820;51.580;5.010;2023-07-29T08:20:24;7.18;;;2.47;;
24713;SDS011;12820;51.580;5.010;2023-07-29T08:25:26;6.72;;;2.30;;
24713;SDS011;12820;51.580;5.010;2023-07-29T08:30:30;11.73;;;2.63;;
24713;SDS011;12820;51.580;5.010;2023-07-29T08:35:32;5.75;;;2.10;;
24713;SDS011;12820;51.580;5.010;2023-07-29T08:40:35;3.90;;;1.80;;
24713;SDS011;12820;51.580;5.010;2023-07-29T08:45:41;6.43;;;1.63;;
24713;SDS011;12820;51.580;5.010;2023-07-29T08:50:45;4.93;;;1.35;;
24713;SDS011;12820;51.580;5.010;2023-07-29T08:55:48;4.30;;;1.45;;
24713;SDS011;12820;51.580;5.010;2023-07-29T09:00:51;6.57;;;1.45;;
24713;SDS011;12820;51.580;5.010;2023-07-29T09:05:54;3.28;;;1.20;;
24713;SDS011;12820;51.580;5.010;2023-07-29T09:10:57;3.10;;;1.40;;
24713;SDS011;12820;51.580;5.010;2023-07-29T09:16:00;3.95;;;1.20;;
24713;SDS011;12820;51.580;5.010;2023-07-29T09:21:02;3.97;;;1.20;;
24713;SDS011;12820;51.580;5.010;2023-07-29T09:26:05;2.92;;;1.25;;
24713;SDS011;12820;51.580;5.010;2023-07-29T09:31:07;4.97;;;1.50;;
24713;SDS011;12820;51.580;5.010;2023-07-29T09:36:21;3.83;;;1.55;;
24713;SDS011;12820;51.580;5.010;2023-07-29T09:41:26;4.72;;;1.50;;
24713;SDS011;12820;51.580;5.010;2023-07-29T09:46:33;5.45;;;2.25;;
24713;SDS011;12820;51.580;5.010;2023-07-29T09:51:38;6.28;;;1.52;;
24713;SDS011;12820;51.580;5.010;2023-07-29T09:56:43;2.90;;;1.52;;
24713;SDS011;12820;51.580;5.010;2023-07-29T10:01:47;5.38;;;1.58;;
24713;SDS011;12820;51.580;5.010;2023-07-29T10:06:50;4.35;;;1.98;;
24713;SDS011;12820;51.580;5.010;2023-07-29T10:11:53;3.00;;;1.70;;
24713;SDS011;12820;51.580;5.010;2023-07-29T10:16:57;4.68;;;1.85;;
24713;SDS011;12820;51.580;5.010;2023-07-29T10:21:59;4.32;;;2.10;;
24713;SDS011;12820;51.580;5.010;2023-07-29T10:27:03;3.92;;;2.20;;
24713;SDS011;12820;51.580;5.010;2023-07-29T10:32:07;4.00;;;2.35;;
24713;SDS011;12820;51.580;5.010;2023-07-29T10:37:13;3.92;;;2.22;;
24713;SDS011;12820;51.580;5.010;2023-07-29T10:42:15;5.72;;;2.10;;
24713;SDS011;12820;51.580;5.010;2023-07-29T10:52:41;3.72;;;1.75;;
24713;SDS011;12820;51.580;5.010;2023-07-29T10:57:46;4.50;;;2.28;;
24713;SDS011;12820;51.580;5.010;2023-07-29T11:03:07;9.40;;;4.30;;
24713;SDS011;12820;51.580;5.010;2023-07-29T11:13:20;7.68;;;3.08;;
24713;SDS011;12820;51.580;5.010;2023-07-29T11:18:22;7.53;;;3.53;;
24713;SDS011;12820;51.580;5.010;2023-07-29T11:23:32;8.02;;;3.83;;
24713;SDS011;12820;51.580;5.010;2023-07-29T11:28:38;8.60;;;4.13;;
24713;SDS011;12820;51.580;5.010;2023-07-29T11:33:42;8.57;;;3.88;;
24713;SDS011;12820;51.580;5.010;2023-07-29T11:38:44;8.55;;;5.00;;
24713;SDS011;12820;51.580;5.010;2023-07-29T11:43:47;10.82;;;6.68;;
24713;SDS011;12820;51.580;5.010;2023-07-29T11:48:49;14.48;;;7.95;;
24713;SDS011;12820;51.580;5.010;2023-07-29T11:53:52;11.32;;;8.15;;
24713;SDS011;12820;51.580;5.010;2023-07-29T11:58:54;12.82;;;9.13;;
24713;SDS011;12820;51.580;5.010;2023-07-29T12:03:57;14.35;;;9.52;;
24713;SDS011;12820;51.580;5.010;2023-07-29T12:09:00;15.00;;;8.48;;
24713;SDS011;12820;51.580;5.010;2023-07-29T12:14:02;10.15;;;6.72;;
24713;SDS011;12820;51.580;5.010;2023-07-29T12:19:05;12.10;;;8.23;;
24713;SDS011;12820;51.580;5.010;2023-07-29T12:24:07;9.98;;;6.68;;
24713;SDS011;12820;51.580;5.010;2023-07-29T12:29:13;9.68;;;4.30;;
24713;SDS011;12820;51.580;5.010;2023-07-29T12:34:18;5.88;;;3.28;;
24713;SDS011;12820;51.580;5.010;2023-07-29T12:44:25;8.60;;;4.68;;
24713;SDS011;12820;51.580;5.010;2023-07-29T12:49:31;6.53;;;4.60;;
24713;SDS011;12820;51.580;5.010;2023-07-29T12:54:34;6.20;;;3.17;;
24713;SDS011;12820;51.580;5.010;2023-07-29T12:59:36;3.92;;;2.00;;
24713;SDS011;12820;51.580;5.010;2023-07-29T13:04:39;3.92;;;1.65;;
24713;SDS011;12820;51.580;5.010;2023-07-29T13:09:41;3.67;;;1.40;;
24713;SDS011;12820;51.580;5.010;2023-07-29T13:14:43;4.05;;;1.38;;
24713;SDS011;12820;51.580;5.010;2023-07-29T13:19:46;3.58;;;1.10;;
24713;SDS011;12820;51.580;5.010;2023-07-29T13:24:48;2.58;;;1.20;;
24713;SDS011;12820;51.580;5.010;2023-07-29T13:29:51;3.10;;;1.45;;
24713;SDS011;12820;51.580;5.010;2023-07-29T13:34:53;4.15;;;1.85;;
24713;SDS011;12820;51.580;5.010;2023-07-29T13:39:55;2.80;;;1.60;;
24713;SDS011;12820;51.580;5.010;2023-07-29T13:44:58;3.38;;;1.88;;
24713;SDS011;12820;51.580;5.010;2023-07-29T13:50:00;3.95;;;1.92;;
24713;SDS011;12820;51.580;5.010;2023-07-29T13:55:03;5.53;;;1.65;;
24713;SDS011;12820;51.580;5.010;2023-07-29T14:00:06;4.10;;;2.30;;
24713;SDS011;12820;51.580;5.010;2023-07-29T14:05:13;3.95;;;2.10;;
24713;SDS011;12820;51.580;5.010;2023-07-29T14:10:16;3.63;;;1.83;;
24713;SDS011;12820;51.580;5.010;2023-07-29T14:15:18;3.38;;;1.70;;
24713;SDS011;12820;51.580;5.010;2023-07-29T14:20:21;3.72;;;1.80;;
24713;SDS011;12820;51.580;5.010;2023-07-29T14:25:23;3.60;;;2.03;;
24713;SDS011;12820;51.580;5.010;2023-07-29T14:30:26;3.15;;;2.08;;
24713;SDS011;12820;51.580;5.010;2023-07-29T14:35:28;4.18;;;2.20;;
24713;SDS011;12820;51.580;5.010;2023-07-29T14:40:30;4.20;;;2.65;;
24713;SDS011;12820;51.580;5.010;2023-07-29T14:45:32;3.83;;;2.42;;
24713;SDS011;12820;51.580;5.010;2023-07-29T14:50:35;3.67;;;2.05;;
24713;SDS011;12820;51.580;5.010;2023-07-29T14:55:37;3.22;;;1.80;;
24713;SDS011;12820;51.580;5.010;2023-07-29T15:00:39;4.90;;;2.15;;
24713;SDS011;12820;51.580;5.010;2023-07-29T15:05:42;4.82;;;2.65;;
24713;SDS011;12820;51.580;5.010;2023-07-29T15:10:45;6.25;;;3.00;;
24713;SDS011;12820;51.580;5.010;2023-07-29T15:15:48;7.68;;;3.60;;
24713;SDS011;12820;51.580;5.010;2023-07-29T15:20:52;7.55;;;3.25;;
24713;SDS011;12820;51.580;5.010;2023-07-29T15:25:54;5.97;;;2.28;;
24713;SDS011;12820;51.580;5.010;2023-07-29T15:30:57;6.03;;;3.00;;
24713;SDS011;12820;51.580;5.010;2023-07-29T15:36:00;5.68;;;4.20;;
24713;SDS011;12820;51.580;5.010;2023-07-29T15:41:02;6.40;;;4.80;;
24713;SDS011;12820;51.580;5.010;2023-07-29T15:46:07;6.90;;;4.72;;
24713;SDS011;12820;51.580;5.010;2023-07-29T15:51:10;5.72;;;3.00;;
24713;SDS011;12820;51.580;5.010;2023-07-29T15:56:12;5.43;;;2.28;;
24713;SDS011;12820;51.580;5.010;2023-07-29T16:01:14;6.00;;;1.90;;
24713;SDS011;12820;51.580;5.010;2023-07-29T16:06:16;5.30;;;2.53;;
24713;SDS011;12820;51.580;5.010;2023-07-29T16:11:19;4.68;;;2.53;;
24713;SDS011;12820;51.580;5.010;2023-07-29T16:16:22;4.25;;;1.80;;
24713;SDS011;12820;51.580;5.010;2023-07-29T16:21:24;4.22;;;1.70;;
24713;SDS011;12820;51.580;5.010;2023-07-29T16:26:27;5.43;;;1.70;;
24713;SDS011;12820;51.580;5.010;2023-07-29T16:31:29;2.58;;;1.20;;
24713;SDS011;12820;51.580;5.010;2023-07-29T16:36:31;2.50;;;1.00;;
24713;SDS011;12820;51.580;5.010;2023-07-29T16:41:33;2.88;;;1.00;;
24713;SDS011;12820;51.580;5.010;2023-07-29T16:46:55;5.63;;;1.20;;
24713;SDS011;12820;51.580;5.010;2023-07-29T16:51:57;2.50;;;1.00;;
24713;SDS011;12820;51.580;5.010;2023-07-29T16:57:00;5.40;;;1.30;;
24713;SDS011;12820;51.580;5.010;2023-07-29T17:02:02;3.35;;;1.35;;
24713;SDS011;12820;51.580;5.010;2023-07-29T17:07:09;4.00;;;1.20;;
24713;SDS011;12820;51.580;5.010;2023-07-29T17:12:11;2.10;;;0.90;;
24713;SDS011;12820;51.580;5.010;2023-07-29T17:17:14;2.85;;;0.95;;
24713;SDS011;12820;51.580;5.010;2023-07-29T17:22:16;4.05;;;1.20;;
24713;SDS011;12820;51.580;5.010;2023-07-29T17:27:19;2.42;;;1.00;;
24713;SDS011;12820;51.580;5.010;2023-07-29T17:32:21;3.25;;;1.23;;
24713;SDS011;12820;51.580;5.010;2023-07-29T17:37:23;3.30;;;0.98;;
24713;SDS011;12820;51.580;5.010;2023-07-29T17:42:25;2.60;;;1.10;;
24713;SDS011;12820;51.580;5.010;2023-07-29T17:47:27;2.60;;;1.25;;
24713;SDS011;12820;51.580;5.010;2023-07-29T17:52:29;4.05;;;1.17;;
24713;SDS011;12820;51.580;5.010;2023-07-29T17:57:32;3.00;;;1.13;;
24713;SDS011;12820;51.580;5.010;2023-07-29T18:02:34;4.82;;;1.60;;
24713;SDS011;12820;51.580;5.010;2023-07-29T18:07:36;7.45;;;1.35;;
24713;SDS011;12820;51.580;5.010;2023-07-29T18:12:38;4.65;;;1.60;;
24713;SDS011;12820;51.580;5.010;2023-07-29T18:17:43;5.82;;;1.75;;
24713;SDS011;12820;51.580;5.010;2023-07-29T18:22:45;9.60;;;2.47;;
24713;SDS011;12820;51.580;5.010;2023-07-29T18:27:50;8.32;;;2.17;;
24713;SDS011;12820;51.580;5.010;2023-07-29T18:32:52;9.70;;;2.25;;
24713;SDS011;12820;51.580;5.010;2023-07-29T18:37:54;8.25;;;2.25;;
24713;SDS011;12820;51.580;5.010;2023-07-29T18:43:00;9.13;;;2.03;;
24713;SDS011;12820;51.580;5.010;2023-07-29T18:48:02;7.35;;;2.17;;
24713;SDS011;12820;51.580;5.010;2023-07-29T18:53:05;13.27;;;2.65;;
24713;SDS011;12820;51.580;5.010;2023-07-29T18:58:07;7.63;;;2.50;;
24713;SDS011;12820;51.580;5.010;2023-07-29T19:03:10;9.98;;;2.65;;
24713;SDS011;12820;51.580;5.010;2023-07-29T19:08:13;9.07;;;2.70;;
24713;SDS011;12820;51.580;5.010;2023-07-29T19:13:16;12.82;;;2.50;;
24713;SDS011;12820;51.580;5.010;2023-07-29T19:18:18;13.57;;;3.30;;
24713;SDS011;12820;51.580;5.010;2023-07-29T19:23:21;13.23;;;3.38;;
24713;SDS011;12820;51.580;5.010;2023-07-29T19:28:24;11.07;;;4.30;;
24713;SDS011;12820;51.580;5.010;2023-07-29T19:33:26;14.60;;;3.40;;
24713;SDS011;12820;51.580;5.010;2023-07-29T19:38:29;9.43;;;3.47;;
24713;SDS011;12820;51.580;5.010;2023-07-29T19:43:31;10.15;;;2.78;;
24713;SDS011;12820;51.580;5.010;2023-07-29T19:48:33;12.07;;;3.40;;
24713;SDS011;12820;51.580;5.010;2023-07-29T19:53:36;10.32;;;3.42;;
24713;SDS011;12820;51.580;5.010;2023-07-29T19:58:38;9.35;;;3.33;;
24713;SDS011;12820;51.580;5.010;2023-07-29T20:03:40;14.60;;;4.10;;
24713;SDS011;12820;51.580;5.010;2023-07-29T20:08:43;12.85;;;4.00;;
24713;SDS011;12820;51.580;5.010;2023-07-29T20:13:45;11.20;;;3.33;;
24713;SDS011;12820;51.580;5.010;2023-07-29T20:18:47;9.95;;;3.38;;
24713;SDS011;12820;51.580;5.010;2023-07-29T20:23:50;11.98;;;3.40;;
24713;SDS011;12820;51.580;5.010;2023-07-29T20:28:53;10.52;;;2.60;;
24713;SDS011;12820;51.580;5.010;2023-07-29T20:33:55;10.15;;;2.80;;
24713;SDS011;12820;51.580;5.010;2023-07-29T20:38:58;8.68;;;2.70;;
24713;SDS011;12820;51.580;5.010;2023-07-29T20:44:00;7.93;;;2.53;;
24713;SDS011;12820;51.580;5.010;2023-07-29T20:49:03;10.27;;;2.53;;
24713;SDS011;12820;51.580;5.010;2023-07-29T20:54:05;8.13;;;2.63;;
24713;SDS011;12820;51.580;5.010;2023-07-29T20:59:08;7.85;;;2.70;;
24713;SDS011;12820;51.580;5.010;2023-07-29T21:04:10;6.60;;;2.72;;
24713;SDS011;12820;51.580;5.010;2023-07-29T21:09:13;9.13;;;2.50;;
24713;SDS011;12820;51.580;5.010;2023-07-29T21:14:15;9.25;;;2.65;;
24713;SDS011;12820;51.580;5.010;2023-07-29T21:19:17;11.07;;;2.65;;
24713;SDS011;12820;51.580;5.010;2023-07-29T21:24:19;9.13;;;2.42;;
24713;SDS011;12820;51.580;5.010;2023-07-29T21:29:21;11.63;;;2.70;;
24713;SDS011;12820;51.580;5.010;2023-07-29T21:34:24;11.77;;;2.60;;
24713;SDS011;12820;51.580;5.010;2023-07-29T21:39:26;11.60;;;2.83;;
24713;SDS011;12820;51.580;5.010;2023-07-29T21:44:28;6.05;;;2.38;;
24713;SDS011;12820;51.580;5.010;2023-07-29T21:49:30;12.00;;;4.00;;
24713;SDS011;12820;51.580;5.010;2023-07-29T21:54:32;6.43;;;2.40;;
24713;SDS011;12820;51.580;5.010;2023-07-29T21:59:35;10.63;;;2.45;;
24713;SDS011;12820;51.580;5.010;2023-07-29T22:04:37;12.60;;;2.72;;
24713;SDS011;12820;51.580;5.010;2023-07-29T22:09:40;8.23;;;2.30;;
24713;SDS011;12820;51.580;5.010;2023-07-29T22:14:42;14.60;;;2.22;;
24713;SDS011;12820;51.580;5.010;2023-07-29T22:19:46;12.40;;;2.22;;
24713;SDS011;12820;51.580;5.010;2023-07-29T22:24:48;12.85;;;2.22;;
24713;SDS011;12820;51.580;5.010;2023-07-29T22:29:54;13.88;;;3.42;;
24713;SDS011;12820;51.580;5.010;2023-07-29T22:34:57;7.15;;;2.47;;
24713;SDS011;12820;51.580;5.010;2023-07-29T22:39:59;9.20;;;2.30;;
24713;SDS011;12820;51.580;5.010;2023-07-29T22:45:01;11.23;;;2.40;;
24713;SDS011;12820;51.580;5.010;2023-07-29T22:50:03;11.30;;;2.55;;
24713;SDS011;12820;51.580;5.010;2023-07-29T22:55:06;8.77;;;2.88;;
24713;SDS011;12820;51.580;5.010;2023-07-29T23:00:08;14.02;;;3.22;;
24713;SDS011;12820;51.580;5.010;2023-07-29T23:05:10;10.35;;;2.67;;
24713;SDS011;12820;51.580;5.010;2023-07-29T23:10:13;10.73;;;3.35;;
24713;SDS011;12820;51.580;5.010;2023-07-29T23:15:15;13.45;;;3.65;;
24713;SDS011;12820;51.580;5.010;2023-07-29T23:20:18;15.02;;;3.70;;
24713;SDS011;12820;51.580;5.010;2023-07-29T23:25:20;16.73;;;4.30;;
24713;SDS011;12820;51.580;5.010;2023-07-29T23:30:22;7.80;;;3.72;;
24713;SDS011;12820;51.580;5.010;2023-07-29T23:35:24;7.93;;;3.78;;
24713;SDS011;12820;51.580;5.010;2023-07-29T23:40:27;12.75;;;4.18;;
24713;SDS011;12820;51.580;5.010;2023-07-29T23:45:29;15.50;;;4.22;;
24713;SDS011;12820;51.580;5.010;2023-07-29T23:50:31;12.00;;;3.80;;
24713;SDS011;12820;51.580;5.010;2023-07-29T23:55:33;13.80;;;4.63;;
